Time;durP1;ratioP1;P1;durP2;ratioP2;P2;SDS_P1;SDS_P2;PMS_P1;PMS_P2;Temp;Humidity;BMP_temperature;BMP_pressure;BME280_temperature;BME280_humidity;BME280_pressure;Samples;Min_cycle;Max_cycle;Signal;HPM_P1;HPM_P2
2023/08/19 00:00:56;;;;;;;29.47;27.37;;;26.10;99.90;;;;;;5062409;28;20500;-47
2023/08/19 00:03:23;;;;;;;28.00;26.60;;;26.10;99.90;;;;;;5062360;28;20474;-48
2023/08/19 00:05:50;;;;;;;30.43;28.83;;;26.10;99.90;;;;;;5064104;28;20475;-47
2023/08/19 00:08:17;;;;;;;29.40;27.90;;;26.10;99.90;;;;;;5066116;28;20475;-48
2023/08/19 00:10:44;;;;;;;30.47;28.97;;;26.10;99.90;;;;;;5063317;28;20502;-46
2023/08/19 00:13:13;;;;;;;29.77;28.03;;;26.10;99.90;;;;;;5061764;28;20476;-50
2023/08/19 00:15:40;;;;;;;30.20;28.80;;;26.10;99.90;;;;;;5062959;28;20472;-48
2023/08/19 00:18:06;;;;;;;29.93;28.43;;;26.10;99.90;;;;;;5065488;28;20474;-46
2023/08/19 00:20:33;;;;;;;30.53;28.30;;;26.10;99.90;;;;;;5064320;28;20550;-50
2023/08/19 00:23:01;;;;;;;29.27;27.90;;;26.10;99.90;;;;;;5061823;28;20476;-51
2023/08/19 00:25:28;;;;;;;29.77;28.33;;;26.10;99.90;;;;;;5055455;28;20482;-48
2023/08/19 00:27:55;;;;;;;27.77;26.40;;;26.10;99.90;;;;;;5062054;28;20494;-47
2023/08/19 00:30:23;;;;;;;28.37;26.97;;;26.10;99.90;;;;;;5061715;28;20488;-47
2023/08/19 00:32:50;;;;;;;30.07;28.33;;;26.10;99.90;;;;;;5062349;28;20858;-46
2023/08/19 00:35:17;;;;;;;29.10;27.70;;;26.10;99.90;;;;;;5062426;28;20866;-47
2023/08/19 00:37:43;;;;;;;30.30;28.53;;;26.10;99.90;;;;;;5063039;28;20467;-47
2023/08/19 00:40:14;;;;;;;30.33;28.50;;;26.10;99.90;;;;;;5061704;28;20548;-48
2023/08/19 00:42:41;;;;;;;28.27;26.83;;;26.10;99.90;;;;;;5062589;28;20476;-46
2023/08/19 00:45:09;;;;;;;28.97;27.57;;;26.10;99.90;;;;;;5061408;28;20476;-49
2023/08/19 00:47:38;;;;;;;30.60;29.10;;;26.10;99.90;;;;;;5061829;28;20464;-46
2023/08/19 00:50:06;;;;;;;30.37;28.83;;;26.00;99.90;;;;;;5064333;28;20487;-46
2023/08/19 00:52:34;;;;;;;28.90;27.60;;;26.10;99.90;;;;;;5063988;28;20467;-47
2023/08/19 00:55:01;;;;;;;32.07;30.57;;;26.00;99.90;;;;;;5060906;28;20509;-46
2023/08/19 00:57:28;;;;;;;29.63;28.07;;;26.00;99.90;;;;;;5060992;28;20471;-46
2023/08/19 00:59:55;;;;;;;27.10;25.80;;;26.00;99.90;;;;;;5063776;28;20482;-48
2023/08/19 01:02:22;;;;;;;28.87;27.20;;;26.00;99.90;;;;;;5063993;28;20533;-46
2023/08/19 01:04:50;;;;;;;27.40;26.03;;;26.00;99.90;;;;;;5062028;28;20475;-47
2023/08/19 01:07:28;;;;;;;28.50;27.20;;;26.00;99.90;;;;;;5060847;28;20479;-46
2023/08/19 01:10:03;;;;;;;29.33;27.93;;;26.00;99.90;;;;;;5063404;28;20981;-47
2023/08/19 01:12:40;;;;;;;28.20;26.60;;;26.00;99.90;;;;;;5063692;28;20447;-46
2023/08/19 01:15:11;;;;;;;28.90;27.13;;;26.00;99.90;;;;;;5053857;28;20471;-47
2023/08/19 01:17:40;;;;;;;28.40;26.83;;;26.00;99.90;;;;;;5061538;28;20502;-48
2023/08/19 01:20:11;;;;;;;27.77;26.47;;;26.00;99.90;;;;;;5063855;28;20479;-46
2023/08/19 01:22:46;;;;;;;28.27;26.83;;;26.00;99.90;;;;;;5062659;28;20478;-46
2023/08/19 01:25:14;;;;;;;27.90;26.60;;;26.00;99.90;;;;;;5060076;28;20942;-49
2023/08/19 01:27:42;;;;;;;30.30;28.40;;;26.00;99.90;;;;;;5061521;28;20476;-47
2023/08/19 01:30:10;;;;;;;28.73;27.23;;;26.00;99.90;;;;;;5063521;28;20451;-47
2023/08/19 01:32:38;;;;;;;27.47;26.20;;;26.00;99.90;;;;;;5062953;28;20467;-47
2023/08/19 01:35:06;;;;;;;27.77;26.40;;;26.00;99.90;;;;;;5060290;28;20793;-49
2023/08/19 01:37:40;;;;;;;27.83;26.53;;;26.00;99.90;;;;;;5060157;28;20476;-47
2023/08/19 01:40:10;;;;;;;27.63;26.23;;;26.00;99.90;;;;;;5063409;28;20486;-48
2023/08/19 01:42:39;;;;;;;28.43;27.00;;;26.00;99.90;;;;;;5062685;28;20475;-49
2023/08/19 01:45:08;;;;;;;27.73;26.37;;;26.00;99.90;;;;;;5060219;28;20483;-46
2023/08/19 01:47:37;;;;;;;28.30;26.90;;;25.90;99.90;;;;;;5059789;28;20447;-49
2023/08/19 01:50:04;;;;;;;29.53;27.77;;;25.90;99.90;;;;;;5063276;28;20455;-46
2023/08/19 01:52:31;;;;;;;28.37;27.00;;;25.90;99.90;;;;;;5063285;28;20877;-49
2023/08/19 01:54:59;;;;;;;29.30;27.80;;;25.90;99.90;;;;;;5051844;28;20484;-49
2023/08/19 01:57:27;;;;;;;27.77;26.47;;;25.90;99.90;;;;;;5060052;28;20494;-46
2023/08/19 01:59:56;;;;;;;31.20;29.37;;;25.90;99.90;;;;;;5060160;28;20459;-46
2023/08/19 02:02:23;;;;;;;32.93;31.43;;;25.90;99.90;;;;;;5059475;28;21022;-46
2023/08/19 02:04:50;;;;;;;27.70;26.40;;;25.90;99.90;;;;;;5062078;28;20475;-46
2023/08/19 02:07:17;;;;;;;27.87;26.47;;;25.90;99.90;;;;;;5063297;28;20464;-46
2023/08/19 02:09:45;;;;;;;29.97;28.53;;;25.90;99.90;;;;;;5061252;28;20564;-47
2023/08/19 02:12:12;;;;;;;29.20;27.70;;;25.90;99.90;;;;;;5059533;28;20995;-47
2023/08/19 02:14:39;;;;;;;28.23;26.93;;;25.90;99.90;;;;;;5060360;28;20871;-46
2023/08/19 02:17:08;;;;;;;29.83;28.23;;;25.90;99.90;;;;;;5063233;28;20475;-49
2023/08/19 02:19:35;;;;;;;31.20;29.50;;;25.90;99.90;;;;;;5062837;28;20497;-48
2023/08/19 02:22:02;;;;;;;28.90;27.60;;;25.90;99.90;;;;;;5059373;28;20504;-48
2023/08/19 02:24:29;;;;;;;29.80;28.40;;;25.90;99.90;;;;;;5059515;28;20444;-46
2023/08/19 02:26:56;;;;;;;29.10;27.60;;;25.90;99.90;;;;;;5062003;28;20494;-46
2023/08/19 02:29:23;;;;;;;28.30;27.00;;;25.90;99.90;;;;;;5063072;28;20471;-46
2023/08/19 02:31:50;;;;;;;29.13;27.63;;;25.90;99.90;;;;;;5061013;28;20491;-46
2023/08/19 02:34:18;;;;;;;28.90;27.40;;;25.90;99.90;;;;;;5059440;28;20807;-46
2023/08/19 02:36:45;;;;;;;27.80;26.50;;;25.90;99.90;;;;;;5060632;28;20480;-46
2023/08/19 02:39:12;;;;;;;28.57;26.83;;;25.90;99.90;;;;;;5058047;28;20550;-47
2023/08/19 02:41:39;;;;;;;28.13;26.40;;;25.90;99.90;;;;;;5059760;28;20460;-46
2023/08/19 02:44:06;;;;;;;29.70;28.20;;;25.90;99.90;;;;;;5059761;28;20482;-47
2023/08/19 02:46:33;;;;;;;28.43;26.73;;;25.90;99.90;;;;;;5059452;28;20472;-46
2023/08/19 02:49:00;;;;;;;28.33;26.80;;;25.90;99.90;;;;;;5062631;28;20470;-47
2023/08/19 02:51:28;;;;;;;28.20;26.70;;;25.90;99.90;;;;;;5062737;28;20493;-47
2023/08/19 02:53:55;;;;;;;28.47;27.07;;;25.90;99.90;;;;;;5059811;28;21007;-48
2023/08/19 02:56:22;;;;;;;30.13;28.53;;;25.80;99.90;;;;;;5059088;28;20495;-46
2023/08/19 02:58:48;;;;;;;28.10;26.90;;;25.90;99.90;;;;;;5060803;28;20626;-46
2023/08/19 03:01:15;;;;;;;28.43;27.13;;;25.80;99.90;;;;;;5065165;28;20994;-46
2023/08/19 03:03:44;;;;;;;29.07;27.77;;;25.80;99.90;;;;;;5065274;28;20517;-49
2023/08/19 03:06:11;;;;;;;29.00;27.50;;;25.80;99.90;;;;;;5062816;28;20940;-46
2023/08/19 03:08:39;;;;;;;27.77;26.57;;;25.80;99.90;;;;;;5063132;28;20476;-47
2023/08/19 03:11:06;;;;;;;29.90;28.47;;;25.80;99.90;;;;;;5066108;28;20494;-46
2023/08/19 03:13:33;;;;;;;29.67;28.33;;;25.80;99.90;;;;;;5066112;28;20471;-46
2023/08/19 03:16:01;;;;;;;29.37;27.87;;;25.80;99.90;;;;;;5062774;28;20448;-46
2023/08/19 03:18:28;;;;;;;28.70;27.30;;;25.80;99.90;;;;;;5062828;28;20471;-46
2023/08/19 03:20:56;;;;;;;29.70;28.30;;;25.80;99.90;;;;;;5065131;28;20884;-47
2023/08/19 03:23:23;;;;;;;28.83;27.50;;;25.80;99.90;;;;;;5065773;28;20831;-49
2023/08/19 03:25:52;;;;;;;29.83;28.33;;;25.80;99.90;;;;;;5064326;28;20475;-46
2023/08/19 03:28:18;;;;;;;29.57;28.13;;;25.80;99.90;;;;;;5066177;28;20570;-46
2023/08/19 03:30:45;;;;;;;32.83;31.17;;;25.80;99.90;;;;;;5064629;28;20487;-46
2023/08/19 03:33:12;;;;;;;29.10;27.70;;;25.80;99.90;;;;;;5062452;28;20515;-46
2023/08/19 03:35:39;;;;;;;28.27;26.97;;;25.80;99.90;;;;;;5068716;28;20487;-48
2023/08/19 03:38:06;;;;;;;30.63;29.13;;;25.80;99.90;;;;;;5068439;28;20484;-46
2023/08/19 03:40:33;;;;;;;29.03;27.53;;;25.80;99.90;;;;;;5062390;28;20542;-47
2023/08/19 03:43:03;;;;;;;28.97;27.67;;;25.80;99.90;;;;;;5065039;28;20506;-46
2023/08/19 03:45:32;;;;;;;29.10;27.70;;;25.80;99.90;;;;;;5065528;28;20823;-46
2023/08/19 03:47:59;;;;;;;27.57;26.27;;;25.80;99.90;;;;;;5062691;28;21047;-47
2023/08/19 03:50:26;;;;;;;29.27;27.87;;;25.70;99.90;;;;;;5062169;28;20987;-46
2023/08/19 03:52:53;;;;;;;30.27;28.43;;;25.70;99.90;;;;;;5063875;28;20468;-46
2023/08/19 03:55:20;;;;;;;28.80;27.50;;;25.80;99.90;;;;;;5065306;28;20471;-47
2023/08/19 03:57:47;;;;;;;27.30;26.10;;;25.70;99.90;;;;;;5064179;28;20475;-46
2023/08/19 04:00:15;;;;;;;31.07;29.67;;;25.70;99.90;;;;;;5061900;28;20472;-47
2023/08/19 04:02:42;;;;;;;30.33;28.83;;;25.70;99.90;;;;;;5062048;28;20512;-46
2023/08/19 04:05:11;;;;;;;30.10;28.70;;;25.70;99.90;;;;;;5065297;28;20482;-46
2023/08/19 04:07:38;;;;;;;31.13;29.67;;;25.80;99.90;;;;;;5064997;28;20485;-46
2023/08/19 04:10:06;;;;;;;31.53;29.97;;;25.70;99.90;;;;;;5053585;28;20448;-48
2023/08/19 04:12:35;;;;;;;32.23;30.73;;;25.80;99.90;;;;;;5061081;28;20483;-46
2023/08/19 04:15:01;;;;;;;32.73;31.23;;;25.70;99.90;;;;;;5061906;28;20853;-46
2023/08/19 04:17:29;;;;;;;30.70;29.30;;;25.70;99.90;;;;;;5061804;28;20468;-47
2023/08/19 04:19:56;;;;;;;37.23;35.53;;;25.70;99.90;;;;;;5063790;28;20535;-50
2023/08/19 04:22:23;;;;;;;36.00;34.60;;;25.70;99.90;;;;;;5064627;28;20487;-49
2023/08/19 04:24:53;;;;;;;37.63;35.83;;;25.80;99.90;;;;;;5063228;28;20464;-50
2023/08/19 04:27:21;;;;;;;36.93;35.50;;;25.80;99.90;;;;;;5060840;28;20505;-49
2023/08/19 04:29:48;;;;;;;37.07;35.47;;;25.90;99.90;;;;;;5062610;28;20444;-48
2023/08/19 04:32:15;;;;;;;36.73;35.23;;;25.90;99.90;;;;;;5064772;28;20483;-49
2023/08/19 04:34:43;;;;;;;36.40;34.90;;;26.00;99.90;;;;;;5056233;28;20968;-48
2023/08/19 04:37:10;;;;;;;38.40;36.80;;;26.10;99.90;;;;;;5064672;28;20551;-49
2023/08/19 04:39:38;;;;;;;36.60;35.20;;;26.30;99.90;;;;;;5064728;28;20466;-48
2023/08/19 04:42:05;;;;;;;37.93;36.43;;;26.40;99.90;;;;;;5060860;28;20488;-52
2023/08/19 04:44:32;;;;;;;38.13;36.70;;;26.60;99.90;;;;;;5063911;28;21052;-49
2023/08/19 04:46:59;;;;;;;39.67;37.77;;;26.70;99.90;;;;;;5061885;28;20545;-49
2023/08/19 04:49:26;;;;;;;38.93;37.43;;;26.80;99.90;;;;;;5060985;28;20444;-48
2023/08/19 04:51:54;;;;;;;40.80;39.27;;;27.00;99.90;;;;;;5062619;28;20488;-47
2023/08/19 04:54:23;;;;;;;38.53;37.03;;;27.10;99.90;;;;;;5063989;28;20497;-47
2023/08/19 04:56:50;;;;;;;39.03;37.53;;;27.20;99.90;;;;;;5063391;28;20471;-47
2023/08/19 04:59:29;;;;;;;38.03;36.53;;;27.30;99.90;;;;;;5061386;28;20448;-47
2023/08/19 05:01:57;;;;;;;37.87;36.20;;;27.40;99.90;;;;;;5061169;28;20462;-47
2023/08/19 05:04:27;;;;;;;39.57;37.87;;;27.50;99.90;;;;;;5061006;28;20507;-46
2023/08/19 05:07:04;;;;;;;39.40;37.70;;;27.50;99.90;;;;;;5061654;28;20840;-49
2023/08/19 05:09:33;;;;;;;41.37;39.63;;;27.60;99.90;;;;;;5064237;28;20938;-49
2023/08/19 05:11:59;;;;;;;43.77;41.53;;;27.70;99.90;;;;;;5060470;28;20467;-49
2023/08/19 05:14:27;;;;;;;40.73;38.77;;;27.80;99.90;;;;;;5060847;28;20445;-54
2023/08/19 05:16:57;;;;;;;41.57;39.87;;;27.90;99.90;;;;;;5062692;28;20490;-54
2023/08/19 05:19:31;;;;;;;41.23;39.37;;;27.90;99.90;;;;;;5064259;28;20451;-52
2023/08/19 05:22:06;;;;;;;38.97;37.37;;;28.00;99.90;;;;;;5062102;28;20472;-51
2023/08/19 05:24:36;;;;;;;42.87;40.10;;;28.10;99.90;;;;;;5063484;28;20824;-50
2023/08/19 05:27:04;;;;;;;41.43;39.63;;;28.10;99.90;;;;;;5061278;28;20440;-52
2023/08/19 05:29:34;;;;;;;40.10;38.20;;;28.20;99.90;;;;;;5060681;28;20475;-52
2023/08/19 05:32:04;;;;;;;40.40;38.70;;;28.20;99.90;;;;;;5060108;28;20506;-53
2023/08/19 05:34:36;;;;;;;39.63;38.13;;;28.20;99.90;;;;;;5061564;28;20985;-49
2023/08/19 05:39:49;;;;;;;39.87;38.27;;;28.30;99.90;;;;;;5064236;28;20499;-53
2023/08/19 05:42:18;;;;;;;41.63;39.93;;;28.30;99.90;;;;;;5060921;28;20467;-51
2023/08/19 05:44:50;;;;;;;40.13;38.43;;;28.30;99.90;;;;;;5061753;28;20478;-52
2023/08/19 05:47:19;;;;;;;39.80;38.00;;;28.40;99.90;;;;;;5060219;28;20879;-49
2023/08/19 05:49:46;;;;;;;42.00;40.20;;;28.40;99.90;;;;;;5060560;28;20472;-47
2023/08/19 05:52:24;;;;;;;40.37;38.57;;;28.40;99.90;;;;;;5062880;28;20490;-49
2023/08/19 05:54:54;;;;;;;39.33;37.53;;;28.40;99.90;;;;;;5062396;28;20431;-49
2023/08/19 05:57:23;;;;;;;43.40;41.60;;;28.50;99.90;;;;;;5059557;28;20440;-49
2023/08/19 05:59:54;;;;;;;43.70;41.80;;;28.50;99.90;;;;;;5068642;28;20443;-49
2023/08/19 06:02:25;;;;;;;45.70;43.37;;;28.60;99.90;;;;;;5061398;28;20579;-52
2023/08/19 06:04:54;;;;;;;41.93;40.13;;;28.50;99.90;;;;;;5060932;28;20526;-50
2023/08/19 06:07:27;;;;;;;41.90;40.10;;;28.60;99.90;;;;;;5063192;28;20475;-52
2023/08/19 06:09:57;;;;;;;42.80;41.07;;;28.60;99.90;;;;;;5060987;28;20475;-50
2023/08/19 06:12:24;;;;;;;43.07;41.27;;;28.60;99.90;;;;;;5062345;28;20596;-49
2023/08/19 06:14:52;;;;;;;42.97;41.10;;;28.60;99.90;;;;;;5061947;28;20443;-49
2023/08/19 06:17:21;;;;;;;43.57;41.33;;;28.60;99.90;;;;;;5058860;28;20540;-48
2023/08/19 06:19:49;;;;;;;47.13;44.63;;;28.70;99.90;;;;;;5060025;28;20517;-50
2023/08/19 06:22:16;;;;;;;42.90;40.90;;;28.70;99.90;;;;;;5062880;28;20989;-47
2023/08/19 06:24:45;;;;;;;44.97;42.47;;;28.70;99.90;;;;;;5063032;28;20594;-50
2023/08/19 06:27:13;;;;;;;47.33;45.00;;;28.70;99.90;;;;;;5062774;28;20463;-49
2023/08/19 06:29:40;;;;;;;47.67;44.83;;;28.80;99.90;;;;;;5061651;28;20547;-51
2023/08/19 06:32:11;;;;;;;47.97;45.23;;;28.80;99.90;;;;;;5059497;28;20496;-50
2023/08/19 06:34:42;;;;;;;40.87;37.97;;;28.80;99.90;;;;;;5059222;28;20446;-46
2023/08/19 06:37:12;;;;;;;39.93;37.80;;;28.70;99.90;;;;;;5065758;28;20447;-46
2023/08/19 06:39:51;;;;;;;37.93;35.87;;;28.80;99.90;;;;;;5067138;28;20447;-47
2023/08/19 06:42:26;;;;;;;38.40;36.30;;;28.80;99.90;;;;;;5056267;28;20487;-47
2023/08/19 06:45:00;;;;;;;41.03;38.77;;;28.80;99.90;;;;;;5062134;28;20487;-47
2023/08/19 06:47:31;;;;;;;38.63;36.30;;;28.80;99.90;;;;;;5066929;28;20443;-47
2023/08/19 06:50:03;;;;;;;38.17;35.80;;;28.70;99.90;;;;;;5064809;28;20477;-47
2023/08/19 06:52:31;;;;;;;39.10;37.10;;;28.60;99.90;;;;;;5062855;28;20509;-47
2023/08/19 06:55:01;;;;;;;37.50;35.43;;;28.50;99.90;;;;;;5064575;28;20439;-47
2023/08/19 06:57:31;;;;;;;38.63;36.63;;;28.40;99.90;;;;;;5066849;28;20474;-47
2023/08/19 07:00:08;;;;;;;38.10;36.10;;;28.30;99.90;;;;;;5063792;28;20447;-47
2023/08/19 07:02:45;;;;;;;38.10;36.20;;;28.20;99.90;;;;;;5063063;28;20436;-48
2023/08/19 07:05:14;;;;;;;37.20;35.40;;;28.10;99.90;;;;;;5063030;28;20507;-48
2023/08/19 07:07:46;;;;;;;37.20;35.00;;;28.00;99.90;;;;;;5062998;28;20436;-48
2023/08/19 07:10:18;;;;;;;37.30;35.47;;;27.90;99.90;;;;;;5054979;28;20448;-49
2023/08/19 07:12:48;;;;;;;38.10;36.20;;;27.80;99.90;;;;;;5063204;28;21073;-47
2023/08/19 07:15:17;;;;;;;35.80;34.00;;;27.70;99.90;;;;;;5054616;28;20460;-47
2023/08/19 07:17:48;;;;;;;35.90;34.10;;;27.60;99.90;;;;;;5062926;28;20440;-47
2023/08/19 07:20:17;;;;;;;37.50;35.70;;;27.50;99.90;;;;;;5055072;28;20460;-47
2023/08/19 07:22:54;;;;;;;37.60;35.67;;;27.50;99.90;;;;;;5062485;28;20491;-47
2023/08/19 07:25:31;;;;;;;33.93;32.27;;;27.40;99.90;;;;;;5055459;28;20898;-47
2023/08/19 07:28:02;;;;;;;38.40;36.63;;;27.30;99.90;;;;;;5064243;28;20573;-47
2023/08/19 07:30:30;;;;;;;38.60;36.53;;;27.30;99.90;;;;;;5066135;28;20480;-47
2023/08/19 07:33:02;;;;;;;35.97;34.27;;;27.20;99.90;;;;;;5064269;28;20478;-46
2023/08/19 07:35:30;;;;;;;35.60;33.90;;;27.20;99.90;;;;;;5062752;28;20460;-47
2023/08/19 07:37:57;;;;;;;38.03;36.23;;;27.10;99.90;;;;;;5063412;28;20501;-47
2023/08/19 07:40:30;;;;;;;36.53;34.73;;;27.10;99.90;;;;;;5064283;28;20455;-47
2023/08/19 07:42:57;;;;;;;36.17;34.50;;;27.10;99.90;;;;;;5064478;28;20443;-47
2023/08/19 07:45:26;;;;;;;35.70;34.10;;;27.00;99.90;;;;;;5061933;28;20844;-49
2023/08/19 07:47:54;;;;;;;37.47;35.53;;;27.00;99.90;;;;;;5062790;28;20437;-47
2023/08/19 07:50:24;;;;;;;36.30;34.60;;;27.00;99.90;;;;;;5065683;28;20445;-49
2023/08/19 07:52:55;;;;;;;35.30;33.60;;;26.90;99.90;;;;;;5064931;28;20439;-47
2023/08/19 07:55:26;;;;;;;39.27;37.17;;;26.90;99.90;;;;;;5062412;28;20436;-48
2023/08/19 07:58:01;;;;;;;35.57;33.87;;;26.80;99.90;;;;;;5062722;28;20472;-48
2023/08/19 08:00:30;;;;;;;35.67;33.87;;;26.80;99.90;;;;;;5061213;28;20837;-48
2023/08/19 08:03:02;;;;;;;39.13;37.13;;;26.80;99.90;;;;;;5064186;28;20810;-47
2023/08/19 08:05:31;;;;;;;40.53;38.73;;;26.80;99.90;;;;;;5061993;28;20563;-47
2023/08/19 08:08:03;;;;;;;42.70;40.67;;;26.80;99.90;;;;;;5063104;28;20959;-46
2023/08/19 08:10:44;;;;;;;40.10;38.20;;;26.80;99.90;;;;;;5051580;28;20530;-47
2023/08/19 08:13:11;;;;;;;41.73;40.03;;;26.80;99.90;;;;;;5062955;28;20447;-48
2023/08/19 08:15:41;;;;;;;39.57;37.87;;;26.80;99.90;;;;;;5063501;28;20463;-48
2023/08/19 08:18:08;;;;;;;42.93;41.03;;;26.80;99.90;;;;;;5060439;28;20467;-48
2023/08/19 08:20:38;;;;;;;40.30;38.60;;;26.80;99.90;;;;;;5060126;28;20983;-47
2023/08/19 08:23:07;;;;;;;40.20;38.40;;;26.80;99.90;;;;;;5061072;28;20455;-47
2023/08/19 08:25:37;;;;;;;44.70;42.67;;;26.90;99.90;;;;;;5062686;28;20471;-48
2023/08/19 08:28:08;;;;;;;42.07;40.27;;;26.80;99.90;;;;;;5061928;28;20891;-47
2023/08/19 08:30:35;;;;;;;40.80;38.80;;;26.90;99.90;;;;;;5059403;28;20558;-48
2023/08/19 08:33:03;;;;;;;42.53;40.67;;;26.90;99.90;;;;;;5062245;28;20472;-47
2023/08/19 08:35:29;;;;;;;36.00;34.40;;;27.00;99.90;;;;;;5064222;28;20432;-50
2023/08/19 08:37:56;;;;;;;36.87;35.27;;;27.00;99.90;;;;;;5053140;28;20487;-48
2023/08/19 08:40:23;;;;;;;36.30;34.70;;;27.00;99.90;;;;;;5064202;28;20490;-47
2023/08/19 08:42:53;;;;;;;35.90;34.00;;;27.00;99.90;;;;;;5064423;28;20467;-49
2023/08/19 08:45:22;;;;;;;35.30;33.60;;;27.00;99.90;;;;;;5053211;28;20518;-46
2023/08/19 08:47:50;;;;;;;36.30;34.50;;;27.10;99.90;;;;;;5060912;28;20495;-48
2023/08/19 08:50:18;;;;;;;33.30;31.70;;;27.10;99.90;;;;;;5051275;28;20999;-51
2023/08/19 08:52:46;;;;;;;37.03;35.53;;;27.10;99.90;;;;;;5059805;28;20225;-47
2023/08/19 08:55:13;;;;;;;40.00;38.43;;;27.10;99.90;;;;;;5063796;28;20515;-47
2023/08/19 08:57:40;;;;;;;40.33;38.83;;;27.10;99.90;;;;;;5064272;28;20447;-47
2023/08/19 09:00:11;;;;;;;38.00;36.47;;;27.20;99.90;;;;;;5061820;28;21141;-47
2023/08/19 09:02:39;;;;;;;40.90;39.03;;;27.20;99.90;;;;;;5060413;28;20932;-48
2023/08/19 09:05:07;;;;;;;38.53;36.93;;;27.20;99.90;;;;;;5062625;28;21042;-47
2023/08/19 09:07:39;;;;;;;39.97;38.33;;;27.20;99.90;;;;;;5064099;28;20471;-48
2023/08/19 09:10:11;;;;;;;39.50;38.00;;;27.20;99.90;;;;;;5061985;28;21008;-50
2023/08/19 09:12:41;;;;;;;38.27;36.67;;;27.20;99.90;;;;;;5060474;28;20996;-51
2023/08/19 09:15:11;;;;;;;40.27;38.77;;;27.20;99.90;;;;;;5062568;28;20889;-49
2023/08/19 09:17:38;;;;;;;39.47;37.93;;;27.20;99.90;;;;;;5063952;28;20435;-50
2023/08/19 09:20:07;;;;;;;39.27;37.77;;;27.20;99.90;;;;;;5061844;28;20471;-48
2023/08/19 09:22:34;;;;;;;41.40;39.83;;;27.20;99.90;;;;;;5060099;28;20444;-47
2023/08/19 09:25:06;;;;;;;39.13;37.13;;;27.20;99.90;;;;;;5061398;28;20507;-48
2023/08/19 09:27:33;;;;;;;39.50;38.00;;;27.20;99.90;;;;;;5063765;28;20474;-50
2023/08/19 09:30:00;;;;;;;38.33;36.93;;;27.20;99.90;;;;;;5062394;28;20498;-47
2023/08/19 09:32:30;;;;;;;37.70;36.20;;;27.20;99.90;;;;;;5059993;28;20890;-48
2023/08/19 09:35:05;;;;;;;41.00;39.33;;;27.10;99.90;;;;;;5060585;28;20464;-48
2023/08/19 09:37:32;;;;;;;38.10;36.70;;;27.10;99.90;;;;;;5063563;28;20467;-47
2023/08/19 09:40:00;;;;;;;37.77;36.27;;;27.10;99.90;;;;;;5062382;28;20490;-47
2023/08/19 09:42:28;;;;;;;40.67;39.17;;;27.10;99.90;;;;;;5059808;28;20538;-50
2023/08/19 09:44:55;;;;;;;38.73;36.97;;;27.10;99.90;;;;;;5059989;28;20503;-49
2023/08/19 09:47:22;;;;;;;38.37;36.87;;;27.10;99.90;;;;;;5063381;28;20522;-47
2023/08/19 09:49:52;;;;;;;37.07;35.77;;;27.00;99.90;;;;;;5063291;28;20486;-48
2023/08/19 09:52:20;;;;;;;41.00;39.40;;;27.00;99.90;;;;;;5051475;28;20975;-48
2023/08/19 09:54:54;;;;;;;37.13;35.80;;;27.00;99.90;;;;;;5059930;28;20464;-47
2023/08/19 09:57:32;;;;;;;40.57;39.07;;;27.00;99.90;;;;;;5051799;28;20468;-52
2023/08/19 09:59:59;;;;;;;38.10;36.70;;;27.00;99.90;;;;;;5060333;28;20456;-50
2023/08/19 10:02:26;;;;;;;41.67;40.07;;;27.00;99.90;;;;;;5062956;28;20498;-47
2023/08/19 10:04:56;;;;;;;37.60;36.20;;;27.00;99.90;;;;;;5063117;28;20915;-47
2023/08/19 10:07:30;;;;;;;36.03;34.57;;;26.90;99.90;;;;;;5052116;28;20475;-49
2023/08/19 10:10:01;;;;;;;40.40;38.80;;;26.90;99.90;;;;;;5059294;28;20546;-50
2023/08/19 10:12:29;;;;;;;38.17;36.70;;;26.90;99.90;;;;;;5062970;28;20493;-47
2023/08/19 10:14:59;;;;;;;35.60;34.37;;;26.90;99.90;;;;;;5062517;28;20470;-49
2023/08/19 10:17:27;;;;;;;36.57;35.17;;;26.90;99.90;;;;;;5059552;28;20472;-47
2023/08/19 10:19:59;;;;;;;35.43;34.13;;;26.90;99.90;;;;;;5059471;28;20479;-50
2023/08/19 10:22:28;;;;;;;36.27;34.77;;;26.90;99.90;;;;;;5059325;28;20459;-47
2023/08/19 10:24:58;;;;;;;35.87;34.57;;;26.90;99.90;;;;;;5059446;28;20765;-48
2023/08/19 10:27:25;;;;;;;37.20;35.80;;;26.90;99.90;;;;;;5062988;28;20442;-51
2023/08/19 10:29:57;;;;;;;38.63;37.13;;;26.90;99.90;;;;;;5062846;28;20467;-53
2023/08/19 10:32:29;;;;;;;36.93;35.57;;;26.90;99.90;;;;;;5051678;28;20460;-50
2023/08/19 10:35:08;;;;;;;37.50;36.07;;;26.90;99.90;;;;;;5059464;28;20474;-48
2023/08/19 10:37:36;;;;;;;38.00;36.50;;;26.90;99.90;;;;;;5062891;28;21101;-47
2023/08/19 10:40:08;;;;;;;36.90;35.50;;;26.90;99.90;;;;;;5061493;28;20443;-49
2023/08/19 10:42:35;;;;;;;36.90;35.50;;;26.90;99.90;;;;;;5059175;28;20447;-47
2023/08/19 10:45:02;;;;;;;38.70;37.13;;;26.90;99.90;;;;;;5059996;28;20570;-52
2023/08/19 10:47:30;;;;;;;38.73;37.23;;;26.90;99.90;;;;;;5062755;28;20497;-47
2023/08/19 10:50:04;;;;;;;38.87;37.27;;;26.90;99.90;;;;;;5062418;28;20474;-47
2023/08/19 10:52:31;;;;;;;38.73;37.23;;;26.90;99.90;;;;;;5059060;28;20441;-47
2023/08/19 10:55:00;;;;;;;40.27;38.60;;;26.90;99.90;;;;;;5059282;28;20982;-52
2023/08/19 10:57:27;;;;;;;39.73;38.20;;;26.90;99.90;;;;;;5062628;28;20442;-49
2023/08/19 10:59:57;;;;;;;38.57;37.00;;;26.90;99.90;;;;;;5062627;28;20868;-47
2023/08/19 11:02:24;;;;;;;38.07;36.67;;;26.90;99.90;;;;;;5050940;28;20466;-47
2023/08/19 11:04:52;;;;;;;38.60;37.20;;;26.90;99.90;;;;;;5058975;28;20507;-48
2023/08/19 11:07:21;;;;;;;35.50;34.20;;;26.90;99.90;;;;;;5061951;28;20440;-47
2023/08/19 11:09:49;;;;;;;39.83;38.00;;;26.90;99.90;;;;;;5062381;28;20485;-49
2023/08/19 11:12:18;;;;;;;39.57;38.17;;;26.90;99.90;;;;;;5059422;28;20548;-47
2023/08/19 11:14:48;;;;;;;39.03;37.63;;;27.00;99.90;;;;;;5059162;28;20818;-47
2023/08/19 11:17:16;;;;;;;40.00;38.40;;;27.00;99.90;;;;;;5061447;28;20447;-47
2023/08/19 11:19:43;;;;;;;38.87;36.73;;;27.00;99.90;;;;;;5062536;28;20435;-47
2023/08/19 11:22:13;;;;;;;41.07;39.37;;;27.00;99.90;;;;;;5062745;28;20497;-50
2023/08/19 11:24:42;;;;;;;37.93;36.43;;;27.00;99.90;;;;;;5062508;28;20468;-49
2023/08/19 11:27:09;;;;;;;38.73;37.13;;;27.00;99.90;;;;;;5064032;28;20444;-47
2023/08/19 11:29:38;;;;;;;37.73;36.23;;;27.00;99.90;;;;;;5066073;28;20784;-47
2023/08/19 11:32:06;;;;;;;42.23;40.53;;;27.00;99.90;;;;;;5064407;28;20490;-47
2023/08/19 11:34:33;;;;;;;41.37;39.77;;;27.00;99.90;;;;;;5062468;28;20476;-47
2023/08/19 11:37:04;;;;;;;40.53;38.93;;;27.10;99.90;;;;;;5062664;28;20562;-47
2023/08/19 11:39:32;;;;;;;40.37;38.77;;;27.10;99.90;;;;;;5065903;28;20439;-47
2023/08/19 11:42:01;;;;;;;39.57;37.87;;;27.10;99.90;;;;;;5065273;28;20459;-48
2023/08/19 11:44:28;;;;;;;40.97;39.33;;;27.10;99.90;;;;;;5062167;28;20494;-48
2023/08/19 11:46:56;;;;;;;41.47;39.77;;;27.10;99.90;;;;;;5062388;28;20448;-48
2023/08/19 11:49:24;;;;;;;39.87;38.27;;;27.10;99.90;;;;;;5065859;28;20450;-50
2023/08/19 11:51:51;;;;;;;39.20;37.50;;;27.10;99.90;;;;;;5065511;28;20459;-48
2023/08/19 11:54:18;;;;;;;39.77;38.23;;;27.10;99.90;;;;;;5062447;28;20440;-47
2023/08/19 11:56:48;;;;;;;41.50;39.70;;;27.10;99.90;;;;;;5062003;28;20562;-49
2023/08/19 11:59:17;;;;;;;43.17;41.47;;;27.10;99.90;;;;;;5064214;28;20523;-49
2023/08/19 12:01:46;;;;;;;44.70;42.87;;;27.10;99.90;;;;;;5065192;28;20887;-47
2023/08/19 12:04:15;;;;;;;39.40;37.70;;;27.10;99.90;;;;;;5063061;28;20435;-47
2023/08/19 12:06:43;;;;;;;41.33;39.73;;;27.10;99.90;;;;;;5061835;28;20479;-47
2023/08/19 12:09:10;;;;;;;41.03;39.13;;;27.10;99.90;;;;;;5063295;28;20440;-49
2023/08/19 12:11:38;;;;;;;42.33;40.53;;;27.20;99.90;;;;;;5064968;28;20455;-50
2023/08/19 12:14:06;;;;;;;41.80;40.00;;;27.20;99.90;;;;;;5064034;28;20471;-47
2023/08/19 12:16:35;;;;;;;42.00;40.07;;;27.20;99.90;;;;;;5061653;28;21089;-49
2023/08/19 12:19:01;;;;;;;42.83;40.93;;;27.20;99.90;;;;;;5061869;28;20479;-47
2023/08/19 12:21:28;;;;;;;42.20;40.30;;;27.20;99.90;;;;;;5064961;28;20483;-48
2023/08/19 12:23:55;;;;;;;39.03;37.23;;;27.20;99.90;;;;;;5064786;28;20466;-49
2023/08/19 12:26:22;;;;;;;38.23;36.70;;;27.20;99.90;;;;;;5061643;28;20563;-49
2023/08/19 12:28:49;;;;;;;41.53;39.80;;;27.30;99.90;;;;;;5061372;28;20448;-47
2023/08/19 12:31:16;;;;;;;42.63;40.73;;;27.30;99.90;;;;;;5063417;28;20499;-47
2023/08/19 12:33:45;;;;;;;40.20;38.50;;;27.30;99.90;;;;;;5064210;28;20518;-46
2023/08/19 12:36:12;;;;;;;43.93;41.97;;;27.30;99.90;;;;;;5063097;28;20809;-47
2023/08/19 12:38:39;;;;;;;40.43;38.80;;;27.30;99.90;;;;;;5061179;28;20470;-47